Chelmsford, Massachusetts
Current Conditions -  °F | °C
As of 12:56 PM on Sunday 23 Nov 2014 (Local Time) from KBED Reporting Station
Clear Clear  
Wind Chill: 57°   Ceiling: Unl
Heat Index: 57°   Visibility: 10mi
Dew Point: 37°   Wind: 13mph
Humidity: 47%   Direction: 250°WSW
Pressure: 30.1"   Gusts: NA
Location:  42.6°N, 71.35°W
Report Text: KBED 231756Z 25011KT 10SM CLR 14/03 A3010 RMK AO2 SLP205 T01390028 10150 20050 56010
Loading
Personal Weather Stations






























Interactive Weather Map New forecast layout! Learn more

10-Day Weather Forecast

Advertisements
Track Severe Weather on mobile